createdAt,value
2022-12-29T00:02:00.501Z,99864.00
2022-12-29T00:04:27.110Z,99876.00
2022-12-29T00:06:54.648Z,99888.00
2022-12-29T00:09:21.657Z,99878.00
2022-12-29T00:11:48.764Z,99874.00
2022-12-29T00:14:47.642Z,99883.00
2022-12-29T00:17:14.604Z,99877.00
2022-12-29T00:20:00.184Z,99868.00
2022-12-29T00:22:45.977Z,99869.00
2022-12-29T00:25:32.486Z,99875.00
2022-12-29T00:28:17.572Z,99877.00
2022-12-29T00:31:03.196Z,99855.00
2022-12-29T00:33:50.548Z,99855.00
2022-12-29T00:36:41.756Z,99851.00
2022-12-29T00:39:33.744Z,99852.00
2022-12-29T00:42:27.098Z,99856.00
2022-12-29T00:44:53.748Z,99858.00
2022-12-29T00:47:20.425Z,99860.00
2022-12-29T00:49:47.146Z,99852.00
2022-12-29T00:52:14.782Z,99863.00
2022-12-29T00:54:42.319Z,99859.00
2022-12-29T00:57:10.718Z,99871.00
2022-12-29T00:59:41.476Z,99859.00
2022-12-29T01:02:09.167Z,99855.00
2022-12-29T01:04:36.291Z,99859.00
2022-12-29T01:07:03.016Z,99854.00
2022-12-29T01:09:48.437Z,99863.00
2022-12-29T01:12:15.256Z,99857.00
2022-12-29T01:14:41.936Z,99864.00
2022-12-29T01:17:08.831Z,99866.00
2022-12-29T01:19:35.569Z,99864.00
2022-12-29T01:22:02.509Z,99872.00
2022-12-29T01:24:29.304Z,99871.00
2022-12-29T01:26:56.100Z,99861.00
2022-12-29T01:29:23.119Z,99863.00
2022-12-29T01:31:50.927Z,99868.00
2022-12-29T01:34:18.465Z,99862.00
2022-12-29T01:36:45.251Z,99857.00
2022-12-29T01:39:12.360Z,99847.00
2022-12-29T01:41:39.097Z,99849.00
2022-12-29T01:44:43.835Z,99842.00
2022-12-29T01:47:10.868Z,99849.00
2022-12-29T01:49:37.556Z,99851.00
2022-12-29T01:52:08.469Z,99852.00
2022-12-29T01:54:44.231Z,99847.00
2022-12-29T01:57:19.135Z,99851.00
2022-12-29T02:00:22.661Z,99851.00
2022-12-29T02:02:53.598Z,99862.00
2022-12-29T02:05:37.391Z,99849.00
2022-12-29T02:08:04.257Z,99855.00
2022-12-29T02:10:34.028Z,99860.00
2022-12-29T02:13:00.671Z,99869.00
2022-12-29T02:15:53.196Z,99874.00
2022-12-29T02:18:57.261Z,99875.00
2022-12-29T02:21:48.578Z,99871.00
2022-12-29T02:24:31.595Z,99867.00
2022-12-29T02:27:37.599Z,99884.00
2022-12-29T02:30:09.054Z,99873.00
2022-12-29T02:32:59.752Z,99864.00
2022-12-29T02:35:43.042Z,99856.00
2022-12-29T02:38:26.243Z,99847.00
2022-12-29T02:41:07.308Z,99844.00
2022-12-29T02:43:42.905Z,99853.00
2022-12-29T02:46:12.554Z,99849.00
2022-12-29T02:49:00.859Z,99841.00
2022-12-29T02:51:56.725Z,99832.00
2022-12-29T02:54:42.503Z,99846.00
2022-12-29T02:57:21.388Z,99852.00
2022-12-29T02:59:53.618Z,99862.00
2022-12-29T03:02:23.282Z,99853.00
2022-12-29T03:05:23.125Z,99845.00
2022-12-29T03:08:04.928Z,99845.00
2022-12-29T03:10:42.841Z,99842.00
2022-12-29T03:13:56.931Z,99841.00
2022-12-29T03:16:47.815Z,99850.00
2022-12-29T03:19:36.848Z,99845.00
2022-12-29T03:22:27.772Z,99843.00
2022-12-29T03:25:13.311Z,99846.00
2022-12-29T03:27:45.268Z,99860.00
2022-12-29T03:30:13.010Z,99853.00
2022-12-29T03:32:47.408Z,99851.00
2022-12-29T03:35:18.324Z,99853.00
2022-12-29T03:37:56.305Z,99855.00
2022-12-29T03:40:24.695Z,99853.00
2022-12-29T03:42:52.065Z,99852.00
2022-12-29T03:45:18.725Z,99861.00
2022-12-29T03:47:45.360Z,99851.00
2022-12-29T03:50:13.998Z,99854.00
2022-12-29T03:52:41.144Z,99863.00
2022-12-29T03:55:08.167Z,99867.00
2022-12-29T03:57:34.756Z,99869.00
2022-12-29T04:00:01.372Z,99879.00
2022-12-29T04:02:28.109Z,99869.00
2022-12-29T04:04:54.872Z,99866.00
2022-12-29T04:07:21.490Z,99873.00
2022-12-29T04:09:48.198Z,99875.00
2022-12-29T04:12:15.472Z,99873.00
2022-12-29T04:14:42.186Z,99872.00
2022-12-29T04:17:08.796Z,99885.00
2022-12-29T04:19:35.424Z,99888.00
2022-12-29T04:22:02.074Z,99894.00
2022-12-29T04:24:28.863Z,99886.00
2022-12-29T04:26:55.563Z,99884.00
2022-12-29T04:29:22.393Z,99889.00
2022-12-29T04:31:48.983Z,99879.00
2022-12-29T04:34:15.743Z,99891.00
2022-12-29T04:36:42.349Z,99886.00
2022-12-29T04:39:09.396Z,99871.00
2022-12-29T04:41:36.033Z,99877.00
2022-12-29T04:44:02.758Z,99858.00
2022-12-29T04:46:29.530Z,99854.00
2022-12-29T04:48:56.191Z,99853.00
2022-12-29T04:51:23.459Z,99861.00
2022-12-29T04:53:50.097Z,99872.00
2022-12-29T04:56:16.734Z,99864.00
2022-12-29T04:58:45.071Z,99872.00
2022-12-29T05:01:11.734Z,99858.00
2022-12-29T05:03:38.453Z,99858.00
2022-12-29T05:06:05.291Z,99865.00
2022-12-29T05:08:31.909Z,99871.00
2022-12-29T05:10:58.551Z,99873.00
2022-12-29T05:13:25.256Z,99882.00
2022-12-29T05:15:53.520Z,99871.00
2022-12-29T05:18:20.685Z,99884.00
2022-12-29T05:20:48.141Z,99893.00
2022-12-29T05:23:15.423Z,99912.00
2022-12-29T05:25:42.585Z,99909.00
2022-12-29T05:28:09.225Z,99925.00
2022-12-29T05:30:35.867Z,99922.00
2022-12-29T05:33:02.463Z,99923.00
2022-12-29T05:35:29.116Z,99936.00
2022-12-29T05:37:55.737Z,99943.00
2022-12-29T05:40:22.684Z,99955.00
2022-12-29T05:42:49.364Z,99941.00
2022-12-29T05:45:16.111Z,99940.00
2022-12-29T05:47:42.699Z,99935.00
2022-12-29T05:50:09.370Z,99935.00
2022-12-29T05:52:36.002Z,99931.00
2022-12-29T05:55:02.633Z,99939.00
2022-12-29T05:57:29.254Z,99934.00
2022-12-29T05:59:55.852Z,99931.00
2022-12-29T06:02:22.647Z,99936.00
2022-12-29T06:04:49.412Z,99935.00
2022-12-29T06:07:16.034Z,99934.00
2022-12-29T06:09:43.831Z,99939.00
2022-12-29T06:12:10.582Z,99936.00
2022-12-29T06:14:37.194Z,99937.00
2022-12-29T06:17:04.040Z,99939.00
2022-12-29T06:19:30.636Z,99930.00
2022-12-29T06:21:57.258Z,99928.00
2022-12-29T06:24:23.870Z,99926.00
2022-12-29T06:26:50.529Z,99922.00
2022-12-29T06:29:18.169Z,99918.00
2022-12-29T06:31:49.941Z,99925.00
2022-12-29T06:34:16.745Z,99932.00
2022-12-29T06:36:45.112Z,99942.00
2022-12-29T06:39:11.848Z,99939.00
2022-12-29T06:41:38.933Z,99939.00
2022-12-29T06:44:05.719Z,99936.00
2022-12-29T06:46:32.479Z,99938.00
2022-12-29T06:48:59.227Z,99941.00
2022-12-29T06:51:25.804Z,99934.00
2022-12-29T06:53:52.472Z,99935.00
2022-12-29T06:56:19.133Z,99931.00
2022-12-29T06:58:45.751Z,99936.00
2022-12-29T07:01:12.421Z,99947.00
2022-12-29T07:03:39.117Z,99932.00
2022-12-29T07:06:06.906Z,99929.00
2022-12-29T07:08:33.505Z,99940.00
2022-12-29T07:11:00.060Z,99923.00
2022-12-29T07:13:26.763Z,99929.00
2022-12-29T07:15:53.377Z,99940.00
2022-12-29T07:18:19.992Z,99941.00
2022-12-29T07:20:46.632Z,99941.00
2022-12-29T07:23:13.344Z,99958.00
2022-12-29T07:25:41.815Z,99973.00
2022-12-29T07:28:08.883Z,99984.00
2022-12-29T07:30:38.266Z,99994.00
2022-12-29T07:33:04.963Z,99993.00
2022-12-29T07:35:31.554Z,99987.00
2022-12-29T07:37:58.168Z,99993.00
2022-12-29T07:40:24.796Z,100002.00
2022-12-29T07:42:51.453Z,99991.00
2022-12-29T07:45:18.125Z,100010.00
2022-12-29T07:47:44.981Z,100015.00
2022-12-29T07:50:11.561Z,100003.00
2022-12-29T07:52:38.197Z,100012.00
2022-12-29T07:55:05.212Z,100021.00
2022-12-29T07:57:32.415Z,100028.00
2022-12-29T07:59:59.641Z,100036.00
2022-12-29T08:02:27.538Z,100039.00
2022-12-29T08:04:54.605Z,100041.00
2022-12-29T08:07:21.600Z,100043.00
2022-12-29T08:09:48.249Z,100048.00
2022-12-29T08:12:14.966Z,100054.00
2022-12-29T08:14:41.600Z,100058.00
2022-12-29T08:17:08.213Z,100073.00
2022-12-29T08:19:34.810Z,100061.00
2022-12-29T08:22:01.569Z,100068.00
2022-12-29T08:24:28.193Z,100069.00
2022-12-29T08:26:54.903Z,100067.00
2022-12-29T08:29:22.484Z,100089.00
2022-12-29T08:31:49.216Z,100088.00
2022-12-29T08:34:15.808Z,100093.00
2022-12-29T08:36:42.485Z,100106.00
2022-12-29T08:39:09.089Z,100099.00
2022-12-29T08:41:35.850Z,100104.00
2022-12-29T08:44:02.476Z,100116.00
2022-12-29T08:46:29.196Z,100124.00
2022-12-29T08:48:55.943Z,100129.00
2022-12-29T08:51:24.811Z,100135.00
2022-12-29T08:53:51.987Z,100136.00
2022-12-29T08:56:18.763Z,100134.00
2022-12-29T08:58:45.382Z,100130.00
2022-12-29T09:01:12.084Z,100147.00
2022-12-29T09:04:12.808Z,100160.00
2022-12-29T09:06:25.381Z,100166.00
2022-12-29T09:08:55.232Z,100169.00
2022-12-29T09:11:24.779Z,100171.00
2022-12-29T09:13:53.008Z,100181.00
2022-12-29T09:16:21.668Z,100179.00
2022-12-29T09:18:48.291Z,100177.00
2022-12-29T09:21:15.029Z,100188.00
2022-12-29T09:23:41.766Z,100211.00
2022-12-29T09:26:09.073Z,100211.00
2022-12-29T09:28:35.892Z,100223.00
2022-12-29T09:31:03.123Z,100213.00
2022-12-29T09:33:29.832Z,100215.00
2022-12-29T09:35:58.907Z,100226.00
2022-12-29T09:38:27.115Z,100228.00
2022-12-29T09:41:02.295Z,100227.00
2022-12-29T09:43:46.244Z,100243.00
2022-12-29T09:46:20.509Z,100241.00
2022-12-29T09:48:53.393Z,100256.00
2022-12-29T09:51:24.501Z,100261.00
2022-12-29T09:53:59.707Z,100265.00
2022-12-29T09:56:28.075Z,100264.00
2022-12-29T09:59:42.122Z,100282.00
2022-12-29T10:02:39.902Z,100283.00
2022-12-29T10:05:24.463Z,100288.00
2022-12-29T10:08:05.286Z,100293.00
2022-12-29T10:11:05.882Z,100304.00
2022-12-29T10:13:47.641Z,100308.00
2022-12-29T10:16:37.297Z,100307.00
2022-12-29T10:19:33.445Z,100302.00
2022-12-29T10:22:28.253Z,100309.00
2022-12-29T10:24:57.170Z,100309.00
2022-12-29T10:27:25.028Z,100318.00
2022-12-29T10:29:56.428Z,100311.00
2022-12-29T10:32:38.617Z,100322.00
2022-12-29T10:35:15.419Z,100322.00
2022-12-29T10:38:07.410Z,100333.00
2022-12-29T10:40:47.553Z,100333.00
2022-12-29T10:43:27.088Z,100349.00
2022-12-29T10:46:07.061Z,100348.00
2022-12-29T10:48:35.725Z,100350.00
2022-12-29T10:51:05.316Z,100347.00
2022-12-29T10:53:41.163Z,100352.00
2022-12-29T10:56:19.523Z,100356.00
2022-12-29T10:58:49.970Z,100347.00
2022-12-29T11:01:18.673Z,100345.00
2022-12-29T11:04:03.644Z,100360.00
2022-12-29T11:06:30.599Z,100355.00
2022-12-29T11:09:11.028Z,100358.00
2022-12-29T11:11:38.420Z,100357.00
2022-12-29T11:14:19.240Z,100373.00
2022-12-29T11:16:58.294Z,100372.00
2022-12-29T11:19:28.312Z,100381.00
2022-12-29T11:21:55.190Z,100382.00
2022-12-29T11:24:27.206Z,100371.00
2022-12-29T11:26:58.788Z,100377.00
2022-12-29T11:29:37.896Z,100376.00
2022-12-29T11:32:28.159Z,100370.00
2022-12-29T11:34:55.579Z,100374.00
2022-12-29T11:37:27.451Z,100379.00
2022-12-29T11:40:04.361Z,100372.00
2022-12-29T11:42:39.237Z,100379.00
2022-12-29T11:45:28.758Z,100373.00
2022-12-29T11:48:02.555Z,100378.00
2022-12-29T11:50:32.491Z,100379.00
2022-12-29T11:53:24.632Z,100382.00
2022-12-29T11:56:12.974Z,100388.00
2022-12-29T11:58:40.077Z,100383.00
2022-12-29T12:01:16.841Z,100383.00
2022-12-29T12:04:07.952Z,100376.00
2022-12-29T12:06:39.193Z,100383.00
2022-12-29T12:09:23.744Z,100376.00
2022-12-29T12:11:54.989Z,100388.00
2022-12-29T12:14:28.810Z,100387.00
2022-12-29T12:17:13.325Z,100393.00
2022-12-29T12:19:45.555Z,100393.00
2022-12-29T12:22:21.312Z,100392.00
2022-12-29T12:24:57.319Z,100393.00
2022-12-29T12:27:26.490Z,100390.00
2022-12-29T12:30:16.397Z,100388.00
2022-12-29T12:32:49.552Z,100390.00
2022-12-29T12:35:33.627Z,100396.00
2022-12-29T12:38:21.880Z,100406.00
2022-12-29T12:41:33.646Z,100400.00
2022-12-29T12:44:14.299Z,100415.00
2022-12-29T12:47:07.431Z,100409.00
2022-12-29T12:49:43.187Z,100414.00
2022-12-29T12:52:37.587Z,100411.00
2022-12-29T12:55:05.670Z,100421.00
2022-12-29T12:58:05.024Z,100420.00
2022-12-29T13:00:41.309Z,100418.00
2022-12-29T13:03:35.975Z,100408.00
2022-12-29T13:06:19.327Z,100403.00
2022-12-29T13:08:54.925Z,100412.00
2022-12-29T13:11:46.471Z,100412.00
2022-12-29T13:14:27.321Z,100419.00
2022-12-29T13:17:08.103Z,100420.00
2022-12-29T13:19:46.179Z,100432.00
2022-12-29T13:22:29.278Z,100426.00
2022-12-29T13:25:08.198Z,100439.00
2022-12-29T13:28:01.738Z,100431.00
2022-12-29T13:30:57.306Z,100445.00
2022-12-29T13:34:01.945Z,100452.00
2022-12-29T13:36:37.209Z,100453.00
2022-12-29T13:39:21.280Z,100463.00
2022-12-29T13:42:07.501Z,100473.00
2022-12-29T13:44:38.376Z,100458.00
2022-12-29T13:48:00.200Z,100451.00
2022-12-29T13:50:29.145Z,100456.00
2022-12-29T13:53:17.467Z,100447.00
2022-12-29T13:55:46.999Z,100449.00
2022-12-29T13:58:24.761Z,100442.00
2022-12-29T14:01:19.389Z,100449.00
2022-12-29T14:03:51.316Z,100456.00
2022-12-29T14:06:28.199Z,100459.00
2022-12-29T14:09:00.534Z,100457.00
2022-12-29T14:11:34.791Z,100452.00
2022-12-29T14:14:25.812Z,100463.00
2022-12-29T14:16:53.753Z,100480.00
2022-12-29T14:19:32.484Z,100476.00
2022-12-29T14:22:05.528Z,100478.00
2022-12-29T14:24:37.875Z,100487.00
2022-12-29T14:27:10.484Z,100496.00
2022-12-29T14:29:39.741Z,100490.00
2022-12-29T14:32:21.516Z,100485.00
2022-12-29T14:34:52.575Z,100485.00
2022-12-29T14:37:29.528Z,100487.00
2022-12-29T14:40:28.588Z,100491.00
2022-12-29T14:42:57.532Z,100483.00
2022-12-29T14:45:33.829Z,100479.00
2022-12-29T14:48:01.138Z,100477.00
2022-12-29T14:50:54.071Z,100486.00
2022-12-29T14:53:47.119Z,100480.00
2022-12-29T14:56:16.125Z,100480.00
2022-12-29T14:58:50.244Z,100478.00
2022-12-29T15:01:28.741Z,100498.00
2022-12-29T15:04:04.724Z,100510.00
2022-12-29T15:06:33.147Z,100515.00
2022-12-29T15:09:18.578Z,100509.00
2022-12-29T15:11:50.837Z,100511.00
2022-12-29T15:14:38.409Z,100508.00
2022-12-29T15:17:33.877Z,100517.00
2022-12-29T15:20:15.671Z,100514.00
2022-12-29T15:22:55.985Z,100516.00
2022-12-29T15:25:23.238Z,100526.00
2022-12-29T15:28:02.537Z,100529.00
2022-12-29T15:30:29.309Z,100537.00
2022-12-29T15:32:56.085Z,100546.00
2022-12-29T15:35:38.601Z,100542.00
2022-12-29T15:38:30.351Z,100548.00
2022-12-29T15:41:05.538Z,100560.00
2022-12-29T15:44:09.741Z,100562.00
2022-12-29T15:46:36.844Z,100558.00
2022-12-29T15:49:07.935Z,100560.00
2022-12-29T15:51:38.327Z,100562.00
2022-12-29T15:54:05.288Z,100559.00
2022-12-29T15:56:33.551Z,100559.00
2022-12-29T15:59:01.181Z,100557.00
2022-12-29T16:01:36.035Z,100565.00
2022-12-29T16:04:08.025Z,100575.00
2022-12-29T16:06:37.938Z,100583.00
2022-12-29T16:09:07.936Z,100588.00
2022-12-29T16:11:39.843Z,100588.00
2022-12-29T16:14:20.741Z,100583.00
2022-12-29T16:16:50.498Z,100594.00
2022-12-29T16:19:30.789Z,100593.00
2022-12-29T16:21:59.922Z,100575.00
2022-12-29T16:24:29.854Z,100582.00
2022-12-29T16:27:32.334Z,100587.00
2022-12-29T16:29:59.113Z,100583.00
2022-12-29T16:32:31.521Z,100587.00
2022-12-29T16:35:16.835Z,100593.00
2022-12-29T16:37:43.523Z,100598.00
2022-12-29T16:40:19.303Z,100605.00
2022-12-29T16:42:52.084Z,100606.00
2022-12-29T16:45:24.925Z,100619.00
2022-12-29T16:48:11.887Z,100617.00
2022-12-29T16:50:40.415Z,100616.00
2022-12-29T16:53:19.129Z,100629.00
2022-12-29T16:55:52.739Z,100611.00
2022-12-29T16:58:26.395Z,100622.00
2022-12-29T17:00:56.823Z,100633.00
2022-12-29T17:03:29.056Z,100628.00
2022-12-29T17:05:57.687Z,100628.00
2022-12-29T17:08:24.516Z,100629.00
2022-12-29T17:11:15.145Z,100633.00
2022-12-29T17:13:42.047Z,100635.00
2022-12-29T17:16:11.616Z,100632.00
2022-12-29T17:18:38.981Z,100634.00
2022-12-29T17:21:05.720Z,100636.00
2022-12-29T17:23:34.937Z,100638.00
2022-12-29T17:26:02.602Z,100636.00
2022-12-29T17:28:32.116Z,100644.00
2022-12-29T17:31:03.074Z,100642.00
2022-12-29T17:33:33.222Z,100649.00
2022-12-29T17:35:59.814Z,100648.00
2022-12-29T17:38:29.844Z,100650.00
2022-12-29T17:40:56.999Z,100655.00
2022-12-29T17:43:23.991Z,100663.00
2022-12-29T17:45:55.566Z,100660.00
2022-12-29T17:48:22.663Z,100674.00
2022-12-29T17:50:52.699Z,100679.00
2022-12-29T17:53:23.867Z,100690.00
2022-12-29T17:55:50.716Z,100691.00
2022-12-29T17:58:18.406Z,100701.00
2022-12-29T18:00:46.046Z,100704.00
2022-12-29T18:03:18.213Z,100709.00
2022-12-29T18:05:45.052Z,100716.00
2022-12-29T18:08:12.552Z,100719.00
2022-12-29T18:10:40.055Z,100718.00
2022-12-29T18:13:07.224Z,100714.00
2022-12-29T18:15:36.154Z,100726.00
2022-12-29T18:18:13.475Z,100725.00
2022-12-29T18:20:41.118Z,100733.00
2022-12-29T18:23:17.202Z,100735.00
2022-12-29T18:25:54.996Z,100738.00
2022-12-29T18:28:21.980Z,100736.00
2022-12-29T18:30:48.645Z,100743.00
2022-12-29T18:33:21.954Z,100745.00
2022-12-29T18:36:02.322Z,100749.00
2022-12-29T18:38:29.881Z,100750.00
2022-12-29T18:40:57.385Z,100761.00
2022-12-29T18:43:24.156Z,100756.00
2022-12-29T18:45:50.842Z,100765.00
2022-12-29T18:48:19.066Z,100756.00
2022-12-29T18:50:46.735Z,100762.00
2022-12-29T18:53:21.406Z,100760.00
2022-12-29T18:55:48.096Z,100750.00
2022-12-29T18:58:15.067Z,100748.00
2022-12-29T19:00:42.072Z,100759.00
2022-12-29T19:03:12.985Z,100764.00
2022-12-29T19:05:41.531Z,100768.00
2022-12-29T19:08:09.924Z,100770.00
2022-12-29T19:10:37.453Z,100760.00
2022-12-29T19:13:04.064Z,100758.00
2022-12-29T19:15:36.192Z,100765.00
2022-12-29T19:20:53.593Z,100759.00
2022-12-29T19:23:22.211Z,100764.00
2022-12-29T19:25:49.647Z,100766.00
2022-12-29T19:28:22.116Z,100764.00
2022-12-29T19:30:52.124Z,100764.00
2022-12-29T19:33:21.079Z,100763.00
2022-12-29T19:35:48.200Z,100762.00
2022-12-29T19:38:15.080Z,100772.00
2022-12-29T19:40:44.093Z,100772.00
2022-12-29T19:43:12.311Z,100773.00
2022-12-29T19:45:40.673Z,100773.00
2022-12-29T19:48:12.144Z,100776.00
2022-12-29T19:50:38.743Z,100782.00
2022-12-29T19:53:05.908Z,100789.00
2022-12-29T19:55:32.978Z,100794.00
2022-12-29T19:57:59.648Z,100796.00
2022-12-29T20:00:26.263Z,100804.00
2022-12-29T20:02:53.282Z,100801.00
2022-12-29T20:05:20.050Z,100797.00
2022-12-29T20:07:46.750Z,100809.00
2022-12-29T20:10:13.467Z,100810.00
2022-12-29T20:12:40.273Z,100809.00
2022-12-29T20:15:08.360Z,100808.00
2022-12-29T20:18:10.895Z,100815.00
2022-12-29T20:20:21.755Z,100801.00
2022-12-29T20:22:48.369Z,100803.00
2022-12-29T20:25:46.131Z,100797.00
2022-12-29T20:28:01.589Z,100796.00
2022-12-29T20:30:28.198Z,100794.00
2022-12-29T20:32:54.990Z,100792.00
2022-12-29T20:35:21.593Z,100798.00
2022-12-29T20:37:48.387Z,100801.00
2022-12-29T20:40:15.125Z,100800.00
2022-12-29T20:42:41.780Z,100812.00
2022-12-29T20:45:09.023Z,100814.00
2022-12-29T20:47:35.670Z,100814.00
2022-12-29T20:50:02.264Z,100813.00
2022-12-29T20:52:28.945Z,100819.00
2022-12-29T20:54:55.601Z,100829.00
2022-12-29T20:57:22.215Z,100837.00
2022-12-29T20:59:48.824Z,100838.00
2022-12-29T21:02:21.191Z,100845.00
2022-12-29T21:05:22.325Z,100857.00
2022-12-29T21:07:34.584Z,100857.00
2022-12-29T21:10:01.249Z,100862.00
2022-12-29T21:12:27.924Z,100872.00
2022-12-29T21:14:54.542Z,100869.00
2022-12-29T21:17:21.146Z,100869.00
2022-12-29T21:19:50.505Z,100872.00
2022-12-29T21:22:17.105Z,100876.00
2022-12-29T21:24:43.718Z,100881.00
2022-12-29T21:27:10.344Z,100876.00
2022-12-29T21:29:37.071Z,100873.00
2022-12-29T21:32:06.688Z,100879.00
2022-12-29T21:34:34.798Z,100883.00
2022-12-29T21:37:01.526Z,100884.00
2022-12-29T21:39:28.507Z,100887.00
2022-12-29T21:42:00.167Z,100898.00
2022-12-29T21:44:45.860Z,100895.00
2022-12-29T21:47:12.540Z,100895.00
2022-12-29T21:49:39.198Z,100896.00
2022-12-29T21:52:05.804Z,100897.00
2022-12-29T21:54:50.880Z,100904.00
2022-12-29T21:57:37.020Z,100900.00
2022-12-29T22:00:28.074Z,100898.00
2022-12-29T22:03:21.977Z,100899.00
2022-12-29T22:06:08.205Z,100907.00
2022-12-29T22:08:53.614Z,100921.00
2022-12-29T22:11:38.980Z,100903.00
2022-12-29T22:14:06.522Z,100911.00
2022-12-29T22:16:33.229Z,100914.00
2022-12-29T22:18:59.880Z,100906.00
2022-12-29T22:21:26.620Z,100919.00
2022-12-29T22:23:53.250Z,100913.00
2022-12-29T22:26:20.043Z,100930.00
2022-12-29T22:28:48.000Z,100923.00
2022-12-29T22:31:29.808Z,100917.00
2022-12-29T22:33:58.504Z,100920.00
2022-12-29T22:36:26.267Z,100917.00
2022-12-29T22:38:52.908Z,100918.00
2022-12-29T22:41:20.178Z,100919.00
2022-12-29T22:43:46.910Z,100917.00
2022-12-29T22:46:14.095Z,100919.00
2022-12-29T22:48:41.591Z,100908.00
2022-12-29T22:51:08.213Z,100917.00
2022-12-29T22:53:34.931Z,100907.00
2022-12-29T22:56:07.414Z,100898.00
2022-12-29T22:58:34.611Z,100910.00
2022-12-29T23:01:01.642Z,100908.00
2022-12-29T23:03:28.655Z,100917.00
2022-12-29T23:05:57.497Z,100922.00
2022-12-29T23:08:24.199Z,100920.00
2022-12-29T23:10:50.919Z,100922.00
2022-12-29T23:13:17.626Z,100930.00
2022-12-29T23:15:44.299Z,100942.00
2022-12-29T23:18:10.933Z,100936.00
2022-12-29T23:20:37.562Z,100940.00
2022-12-29T23:23:04.197Z,100936.00
2022-12-29T23:25:30.803Z,100941.00
2022-12-29T23:27:57.663Z,100938.00
2022-12-29T23:30:24.336Z,100942.00
2022-12-29T23:32:50.912Z,100944.00
2022-12-29T23:35:17.698Z,100942.00
2022-12-29T23:37:44.335Z,100940.00
2022-12-29T23:40:11.626Z,100936.00
2022-12-29T23:42:38.296Z,100929.00
2022-12-29T23:45:05.561Z,100923.00
2022-12-29T23:47:32.241Z,100916.00
2022-12-29T23:49:58.837Z,100924.00
2022-12-29T23:52:25.454Z,100918.00
2022-12-29T23:54:52.082Z,100925.00
2022-12-29T23:57:18.809Z,100919.00
2022-12-29T23:59:45.405Z,100915.00
